Akhiok, Alaska
Current Conditions -  °F | °C
As of 12:53 AM on Thursday 29 Jan 2015 (Local Time) from PADQ Reporting Station
Scattered Clouds Scattered Clouds  
Wind Chill: 26°   Ceiling: Unl
Heat Index: 32°   Visibility: 10mi
Dew Point: 22°   Wind: 7mph
Humidity: 66%   Direction: 330°NNW
Pressure: 29.88"   Gusts: 20mph
Location:  57.454°N, 153.546°W
Report Text: PADQ 290953Z 33006G17KT 10SM FEW030 SCT120 00/M06 A2988 RMK AO2 SLP119 T00001056 $
Loading
Personal Weather Stations






























Interactive Weather Map New forecast layout! Learn more

10-Day Weather Forecast

Advertisements
Track Severe Weather on mobile